ADDS METAR Data INFO
IDs: Format: Raw Decoded Include TAF

Data at: 0353 UTC 19 Jul 2018

KRNV 190335Z AUTO 15003KT 10SM CLR A2993 RMK AO2
KRNV 190315Z AUTO 00000KT 10SM SCT120 A2993 RMK AO2
KRNV 190255Z AUTO 00000KT 10SM SCT120 26/26 A2993 RMK AO2 T02550255
KRNV 190235Z AUTO 17003KT 10SM CLR A2993 RMK AO2
KRNV 190215Z AUTO 19003KT 10SM CLR A2992 RMK AO2
KRNV 190155Z AUTO 17004KT 10SM CLR A2992 RMK AO2
KRNV 190135Z AUTO 19003KT 10SM SCT029 A2992 RMK AO2
KRNV 190115Z AUTO 20003KT 10SM SCT029 A2992 RMK AO2
KRNV 190055Z AUTO 22003KT 10SM CLR A2991 RMK AO2
KRNV 190035Z AUTO 25004KT 10SM CLR A2992 RMK AO2
KRNV 190015Z AUTO 24003KT 10SM CLR A2991 RMK AO2 LTG DSNT SE
KRNV 182355Z AUTO 25004KT 10SM SCT120 A2991 RMK AO2
KRNV 182335Z AUTO 24004KT 10SM SCT120 A2992 RMK AO2
KRNV 182315Z AUTO 31003KT 10SM CLR A2992 RMK AO2 LTG DSNT SE
KRNV 182255Z AUTO 00000KT 10SM CLR A2992 RMK AO2
KRNV 182235Z AUTO 00000KT 10SM CLR A2992 RMK AO2
KRNV 182215Z AUTO 27003KT 10SM CLR A2992 RMK AO2 LTG DSNT E
KRNV 182155Z AUTO 24004KT 10SM SCT024 SCT120 A2992 RMK AO2 LTG DSNT NE THRU SE
KRNV 182135Z AUTO 24004KT 10SM SCT022 BKN100 BKN120 A2994 RMK AO2
KRNV 182115Z AUTO 24008KT 10SM SCT008 BKN022 A2994 RMK AO2 LTG DSNT NE SE AND SW
KRNV 182055Z AUTO 24005KT 10SM CLR A2994 RMK AO2 LTG DSNT N THRU SE
KRNV 182035Z AUTO 00000KT 10SM CLR 28/27 A2992 RMK AO2 T02810265
KRNV 182015Z AUTO 31003KT 10SM VCTS CLR A2992 RMK AO2 LTG DSNT SE AND S
KRNV 181955Z AUTO 31003KT 10SM SCT035 SCT042 SCT060 A2993 RMK AO2 LTG DSNT SE THRU SW
KRNV 181935Z AUTO 35004KT 10SM -VCTSRA SCT035 SCT041 SCT060 A2993 RMK AO2 LTG DSNT SE THRU SW
KRNV 181915Z AUTO 32004KT 10SM SCT044 SCT075 SCT085 30/26 A2994 RMK AO2 LTG DSNT ALQS T03010263
KRNV 181855Z AUTO 31007KT 10SM SCT045 SCT055 31/26 A2997 RMK AO2 LTG DSNT SW THRU NW T03090262
KRNV 181835Z AUTO 33006KT 10SM VCTS SCT019 A2997 RMK AO2 LTG DSNT SW AND W
KRNV 181815Z AUTO 31004KT 10SM VCTS SCT023 SCT027 A2997 RMK AO2 LTG DSNT W THRU N
KRNV 181755Z AUTO 29004KT 10SM BKN025 BKN120 A2996 RMK AO2 LTG DSNT W
KRNV 181735Z AUTO 00000KT 10SM BKN027 31/26 A2997 RMK AO2 T03080255
KRNV 181715Z AUTO 00000KT 10SM SCT021 BKN029 A2997 RMK AO2 LTG DSNT W
KRNV 181655Z AUTO 00000KT 10SM SCT021 31/25 A2998 RMK AO2 T03140254
KRNV 181635Z AUTO 00000KT 10SM SCT016 SCT023 A2998 RMK AO2
KRNV 181615Z AUTO 00000KT 10SM BKN016 BKN023 A2999 RMK AO2
KRNV 181555Z AUTO 00000KT 10SM SCT016 A2999 RMK AO2 LTG DSNT NW
KRNV 181535Z AUTO 00000KT 10SM SCT011 SCT016 30/27 A2999 RMK AO2 T02980272
KRNV 181515Z AUTO 00000KT 10SM SCT011 A2999 RMK AO2
KRNV 181455Z AUTO 08003KT 10SM SCT009 A2999 RMK AO2
KRNV 181435Z AUTO 09004KT 10SM BKN007 A2999 RMK AO2
KRNV 181415Z AUTO 00000KT 10SM BKN007 OVC070 27/27 A2999 RMK AO2 T02730272
KRNV 181355Z AUTO 01004KT 10SM BKN007 A3000 RMK AO2
KRNV 181335Z AUTO 00000KT 10SM SCT007 A3000 RMK AO2 LTG DSNT NW
KRNV 181315Z AUTO 00000KT 10SM CLR A2999 RMK AO2
KRNV 181255Z AUTO 00000KT 10SM SCT070 A2999 RMK AO2
KRNV 181235Z AUTO 00000KT 10SM SCT060 A2999 RMK AO2
KRNV 181215Z AUTO 00000KT 10SM CLR A2999 RMK AO2
KRNV 181155Z AUTO 00000KT 10SM CLR A2999 RMK AO2
KRNV 181135Z AUTO 00000KT 10SM CLR A2998 RMK AO2
KRNV 181115Z AUTO 20003KT 10SM CLR A2998 RMK AO2
KRNV 181055Z AUTO 20004KT 10SM CLR A2998 RMK AO2
KRNV 181035Z AUTO 20004KT 10SM CLR 24/24 A2997 RMK AO2 T02370237
KRNV 181015Z AUTO 22003KT 10SM CLR A2997 RMK AO2
KRNV 180955Z AUTO 23004KT 10SM CLR A2996 RMK AO2
KRNV 180935Z AUTO 00000KT 10SM CLR 24/24 A2997 RMK AO2 T02380238
KRNV 180915Z AUTO 00000KT 10SM CLR A2997 RMK AO2
KRNV 180855Z AUTO 11003KT 10SM CLR A2997 RMK AO2
KRNV 180835Z AUTO 10004KT 10SM CLR 24/24 A2997 RMK AO2 T02400240
KRNV 180815Z AUTO 00000KT 10SM CLR 24/24 A2997 RMK AO2 T02400240
KRNV 180755Z AUTO 00000KT 10SM CLR 24/24 A2997 RMK AO2 T02390239
KRNV 180735Z AUTO 00000KT 10SM CLR 24/24 A2997 RMK AO2 T02390239
KRNV 180715Z AUTO 00000KT 10SM CLR 24/24 A2996 RMK AO2 T02400240
KRNV 180655Z AUTO 00000KT 10SM SCT027 24/24 A2997 RMK AO2 T02420242
KRNV 180635Z AUTO 00000KT 10SM SCT034 24/24 A2998 RMK AO2 T02410241
KRNV 180615Z AUTO 18003KT 10SM BKN034 A2998 RMK AO2
KRNV 180555Z AUTO 17003KT 10SM CLR 24/24 A2998 RMK AO2 T02420242
KRNV 180535Z AUTO 16003KT 10SM CLR A2998 RMK AO2
KRNV 180515Z AUTO 18003KT 10SM CLR A2999 RMK AO2
KRNV 180455Z AUTO 00000KT 10SM CLR A3000 RMK AO2
KRNV 180435Z AUTO 15003KT 10SM CLR A3000 RMK AO2
KRNV 180415Z AUTO 12003KT 10SM CLR A2999 RMK AO2
KRNV 180355Z AUTO 00000KT 10SM CLR 25/25 A2999 RMK AO2 LTG DSNT E AND SW T02450245
KRNV 180335Z AUTO 19003KT 10SM CLR A3000 RMK AO2
KRNV 180315Z AUTO 00000KT 10SM CLR 25/25 A3000 RMK AO2 T02450245
KRNV 180255Z AUTO 19003KT 10SM CLR 24/24 A3000 RMK AO2 T02440244
KRNV 180235Z AUTO 00000KT 10SM CLR 24/24 A3000 RMK AO2 T02440244
KRNV 180215Z AUTO 00000KT 10SM CLR 24/24 A2999 RMK AO2 T02430243
KRNV 180155Z AUTO 19003KT 10SM CLR 24/24 A2998 RMK AO2 LTG DSNT NW THRU E T02430243
KRNV 180135Z AUTO 20003KT 10SM CLR 25/25 A2998 RMK AO2 LTG DSNT E T02450245
KRNV 180115Z AUTO 00000KT 10SM CLR 25/25 A2998 RMK AO2 LTG DSNT E T02450245
KRNV 180055Z AUTO 00000KT 10SM CLR 25/25 A2998 RMK AO2 T02510251
KRNV 180035Z AUTO 00000KT 10SM CLR A2997 RMK AO2 LTG DSNT E AND W
KRNV 180015Z AUTO 29004KT 10SM CLR 25/25 A2997 RMK AO2 LTG DSNT W T02490249
KRNV 172355Z AUTO 29003KT 10SM CLR A2997 RMK AO2 LTG DSNT E AND W
KRNV 172335Z AUTO 21003KT 10SM CLR A2996 RMK AO2 LTG DSNT E AND SE
KRNV 172315Z AUTO 00000KT 10SM VCTS CLR A2995 RMK AO2 LTG DSNT E
KRNV 172255Z AUTO 00000KT 10SM CLR 25/24 A2997 RMK AO2 LTG DSNT E T02490239
KRNV 172235Z AUTO 20004KT 10SM VCTS CLR 25/24 A2996 RMK AO2 LTG DSNT E AND NW T02460236
KRNV 172215Z AUTO 14003KT 10SM SCT038 25/23 A2997 RMK AO2 LTG DSNT E SE AND NW T02520233
KRNV 172155Z AUTO 19004KT 10SM VCTS SCT024 SCT030 BKN038 A2997 RMK AO2 LTG DSNT NW THRU E
KRNV 172135Z AUTO 24004KT 10SM -TSRA SCT031 BKN047 OVC065 A2997 RMK AO2 LTG DSNT ALQS
KRNV 172115Z AUTO 26005KT 10SM TS SCT040 SCT048 BKN060 27/25 A2997 RMK AO2 LTG DSNT ALQS T02730249
KRNV 172055Z AUTO 22005KT 10SM TS SCT045 SCT120 A2997 RMK AO2 LTG DSNT ALQS
KRNV 172035Z AUTO 22007KT 10SM TS SCT048 A2997 RMK AO2 LTG DSNT SW THRU N
KRNV 172015Z AUTO 23005KT 10SM TS SCT029 SCT039 OVC048 A2997 RMK AO2 LTG DSNT SW THRU NW
KRNV 171955Z AUTO 19006KT 10SM BKN029 OVC040 A2996 RMK AO2 LTG DSNT SW THRU NW
KRNV 171935Z AUTO 17004KT 10SM BKN029 BKN038 A2996 RMK AO2 LTG DSNT W AND NW
KRNV 171915Z AUTO 22004KT 10SM SCT029 SCT040 SCT050 A2998 RMK AO2 LTG DSNT W
KRNV 171855Z AUTO 21005KT 10SM SCT050 A3000 RMK AO2 LTG DSNT W
KRNV 171835Z AUTO 21004KT 7SM SCT034 A3000 RMK AO2
KRNV 171815Z AUTO 15003KT 10SM SCT034 A3001 RMK AO2
KRNV 171755Z AUTO 00000KT 10SM CLR A3002 RMK AO2
KRNV 171735Z AUTO 22003KT 10SM CLR A3002 RMK AO2
KRNV 171715Z AUTO 00000KT 10SM CLR A3002 RMK AO2
KRNV 171655Z AUTO 23003KT 10SM SCT025 A3002 RMK AO2
KRNV 171635Z AUTO 00000KT 10SM SCT023 SCT028 A3002 RMK AO2
KRNV 171615Z AUTO 19003KT 10SM CLR A3002 RMK AO2
KRNV 171555Z AUTO 00000KT 10SM CLR A3002 RMK AO2